PWSweather.com
Personal Weather Stations
Station Observations
CARNOUSTIE
Pambride, CarnoustieGB DD7 6DY

PambrideCarnoustieGB DD7 6DY

Lat: 56.50889, Lon: -2.7051

Elevation: 105

Station Type: Oregon Scientific WMR200

www.carnoustieweather.co.uk

High Low Average
Temperature 67.8°F19.9°C 48.9°F9.4°C 59.2°F15.1°C
Dew Point 57.5°F14.2°C 35.5°F1.9°C 47.2°F8.4°C
Winds 13.8 mph 22.2 kmh Calm Calm 6.0 mph WSW9.7 kmh WSW
Wind Gusts 18.4 mph29.6 kmh -- 8.0 mph12.9 kmh
Humidity 78% 45% 65%
Pressure 29.74 in1007.1 mb 29.59 in1002.0 mb -
Precipitation 0.00 in0.0 mm - -
Hour Temp Dew Point Humidity Winds Wind Gusts Pressure Precip Precip Rate Daily Precip Total
12:00 AM 52.3°F11.3°C 39.3°F4.1°C 61% 3.5 mph W5.6 kmh W 3.5 mph5.6 kmh 29.62 in1003.0 mb - 0.00 in0.0 mm 0.00 in0.0 mm
12:10 AM 52.2°F11.2°C 39.5°F4.2°C 62% 3.5 mph W5.6 kmh W 3.5 mph5.6 kmh 29.62 in1003.0 mb - 0.00 in0.0 mm 0.00 in0.0 mm
12:20 AM 52.2°F11.2°C 39.9°F4.4°C 63% 2.3 mph W3.7 kmh W 2.3 mph3.7 kmh 29.62 in1003.0 mb - 0.00 in0.0 mm 0.00 in0.0 mm
12:30 AM 52.3°F11.3°C 40.5°F4.7°C 64% 2.3 mph W3.7 kmh W 2.3 mph3.7 kmh 29.62 in1003.0 mb - 0.00 in0.0 mm 0.00 in0.0 mm
12:40 AM 52.3°F11.3°C 40.5°F4.7°C 64% Calm Calm -- 29.62 in1003.0 mb - 0.00 in0.0 mm 0.00 in0.0 mm
12:50 AM 52.3°F11.3°C 40.5°F4.7°C 64% Calm Calm 1.2 mph1.9 kmh 29.62 in1003.0 mb - 0.00 in0.0 mm 0.00 in0.0 mm
01:00 AM 52.7°F11.5°C 41.3°F5.2°C 65% Calm Calm -- 29.62 in1003.0 mb - 0.00 in0.0 mm 0.00 in0.0 mm
01:10 AM 53.1°F11.7°C 41.6°F5.3°C 65% 1.2 mph W1.9 kmh W 1.2 mph1.9 kmh 29.62 in1003.0 mb - 0.00 in0.0 mm 0.00 in0.0 mm
01:20 AM 53.2°F11.8°C 42.2°F5.7°C 66% 2.3 mph WSW3.7 kmh WSW 2.3 mph3.7 kmh 29.62 in1003.0 mb - 0.00 in0.0 mm 0.00 in0.0 mm
01:30 AM 53.7°F12.1°C 42.7°F5.9°C 66% 1.2 mph SSW1.9 kmh SSW 2.3 mph3.7 kmh 29.62 in1003.0 mb - 0.00 in0.0 mm 0.00 in0.0 mm
01:40 AM 54.3°F12.4°C 43.2°F6.2°C 66% 1.2 mph SW1.9 kmh SW 3.5 mph5.6 kmh 29.62 in1003.0 mb - 0.00 in0.0 mm 0.00 in0.0 mm
01:50 AM 54.5°F12.5°C 43.4°F6.3°C 66% 1.2 mph SW1.9 kmh SW 2.3 mph3.7 kmh 29.62 in1003.0 mb - 0.00 in0.0 mm 0.00 in0.0 mm
02:00 AM 54.5°F12.5°C 43.4°F6.3°C 66% 2.3 mph W3.7 kmh W 3.5 mph5.6 kmh 29.62 in1003.0 mb - 0.00 in0.0 mm 0.00 in0.0 mm
02:10 AM 54.1°F12.3°C 43.0°F6.1°C 66% 2.3 mph W3.7 kmh W 3.5 mph5.6 kmh 29.62 in1003.0 mb - 0.00 in0.0 mm 0.00 in0.0 mm
02:20 AM 54.1°F12.3°C 43.0°F6.1°C 66% 2.3 mph WSW3.7 kmh WSW 2.3 mph3.7 kmh 29.59 in1002.0 mb - 0.00 in0.0 mm 0.00 in0.0 mm
02:30 AM 53.6°F12.0°C 42.5°F5.8°C 66% 2.3 mph WSW3.7 kmh WSW 2.3 mph3.7 kmh 29.62 in1003.0 mb - 0.00 in0.0 mm 0.00 in0.0 mm
02:40 AM 52.5°F11.4°C 41.9°F5.5°C 67% 2.3 mph W3.7 kmh W 2.3 mph3.7 kmh 29.62 in1003.0 mb - 0.00 in0.0 mm 0.00 in0.0 mm
02:50 AM 51.8°F11.0°C 41.2°F5.1°C 67% 1.2 mph SW1.9 kmh SW 2.3 mph3.7 kmh 29.62 in1003.0 mb - 0.00 in0.0 mm 0.00 in0.0 mm
03:00 AM 51.5°F10.8°C 41.7°F5.4°C 69% 3.5 mph W5.6 kmh W 3.5 mph5.6 kmh 29.62 in1003.0 mb - 0.00 in0.0 mm 0.00 in0.0 mm
03:10 AM 51.3°F10.7°C 41.4°F5.2°C 69% 3.5 mph W5.6 kmh W 4.6 mph7.4 kmh 29.62 in1003.0 mb - 0.00 in0.0 mm 0.00 in0.0 mm
03:20 AM 51.3°F10.7°C 41.8°F5.4°C 70% 2.3 mph WSW3.7 kmh WSW 3.5 mph5.6 kmh 29.62 in1003.0 mb - 0.00 in0.0 mm 0.00 in0.0 mm
03:30 AM 50.9°F10.5°C 41.5°F5.3°C 70% 3.5 mph W5.6 kmh W 3.5 mph5.6 kmh 29.62 in1003.0 mb - 0.00 in0.0 mm 0.00 in0.0 mm
03:40 AM 50.7°F10.4°C 41.7°F5.4°C 71% 3.5 mph W5.6 kmh W 3.5 mph5.6 kmh 29.62 in1003.0 mb - 0.00 in0.0 mm 0.00 in0.0 mm
03:50 AM 50.5°F10.3°C 41.4°F5.2°C 71% 3.5 mph W5.6 kmh W 3.5 mph5.6 kmh 29.62 in1003.0 mb - 0.00 in0.0 mm 0.00 in0.0 mm
04:00 AM 50.2°F10.1°C 41.5°F5.3°C 72% 3.5 mph W5.6 kmh W 3.5 mph5.6 kmh 29.62 in1003.0 mb - 0.00 in0.0 mm 0.00 in0.0 mm
04:10 AM 49.8°F9.9°C 41.5°F5.3°C 73% 4.6 mph W7.4 kmh W 5.8 mph9.3 kmh 29.62 in1003.0 mb - 0.00 in0.0 mm 0.00 in0.0 mm
04:20 AM 50.0°F10.0°C 42.0°F5.6°C 74% 3.5 mph W5.6 kmh W 4.6 mph7.4 kmh 29.62 in1003.0 mb - 0.00 in0.0 mm 0.00 in0.0 mm
04:30 AM 49.8°F9.9°C 41.9°F5.5°C 74% 3.5 mph WSW5.6 kmh WSW 4.6 mph7.4 kmh 29.62 in1003.0 mb - 0.00 in0.0 mm 0.00 in0.0 mm
04:40 AM 49.7°F9.8°C 41.7°F5.4°C 74% 2.3 mph WNW3.7 kmh WNW 3.5 mph5.6 kmh 29.62 in1003.0 mb - 0.00 in0.0 mm 0.00 in0.0 mm
04:50 AM 49.0°F9.4°C 41.1°F5.1°C 74% 3.5 mph WNW5.6 kmh WNW 3.5 mph5.6 kmh 29.59 in1002.0 mb - 0.00 in0.0 mm 0.00 in0.0 mm
05:00 AM 48.9°F9.4°C 41.3°F5.2°C 75% 3.5 mph W5.6 kmh W 3.5 mph5.6 kmh 29.62 in1003.0 mb - 0.00 in0.0 mm 0.00 in0.0 mm
05:10 AM 49.1°F9.5°C 41.5°F5.3°C 75% 3.5 mph W5.6 kmh W 4.6 mph7.4 kmh 29.62 in1003.0 mb - 0.00 in0.0 mm 0.00 in0.0 mm
05:20 AM 49.6°F9.8°C 42.0°F5.6°C 75% 2.3 mph W3.7 kmh W 3.5 mph5.6 kmh 29.62 in1003.0 mb - 0.00 in0.0 mm 0.00 in0.0 mm
05:30 AM 50.2°F10.1°C 42.6°F5.9°C 75% 3.5 mph W5.6 kmh W 3.5 mph5.6 kmh 29.62 in1003.0 mb - 0.00 in0.0 mm 0.00 in0.0 mm
05:40 AM 50.9°F10.5°C 44.0°F6.7°C 77% 4.6 mph W7.4 kmh W 5.8 mph9.3 kmh 29.62 in1003.0 mb - 0.00 in0.0 mm 0.00 in0.0 mm
05:50 AM 52.0°F11.1°C 45.4°F7.4°C 78% 3.5 mph W5.6 kmh W 4.6 mph7.4 kmh 29.62 in1003.0 mb - 0.00 in0.0 mm 0.00 in0.0 mm
06:00 AM 53.6°F12.0°C 46.9°F8.3°C 78% 3.5 mph WSW5.6 kmh WSW 6.9 mph11.1 kmh 29.62 in1003.0 mb - 0.00 in0.0 mm 0.00 in0.0 mm
06:10 AM 54.6°F12.6°C 47.9°F8.8°C 78% 4.6 mph W7.4 kmh W 5.8 mph9.3 kmh 29.62 in1003.0 mb - 0.00 in0.0 mm 0.00 in0.0 mm
06:20 AM 55.9°F13.3°C 48.5°F9.2°C 76% 4.6 mph WSW7.4 kmh WSW 6.9 mph11.1 kmh 29.62 in1003.0 mb - 0.00 in0.0 mm 0.00 in0.0 mm
06:30 AM 56.4°F13.6°C 48.2°F9.0°C 74% 4.6 mph W7.4 kmh W 4.6 mph7.4 kmh 29.62 in1003.0 mb - 0.00 in0.0 mm 0.00 in0.0 mm
06:40 AM 57.7°F14.3°C 49.1°F9.5°C 73% 3.5 mph SW5.6 kmh SW 4.6 mph7.4 kmh 29.62 in1003.0 mb - 0.00 in0.0 mm 0.00 in0.0 mm
06:50 AM 57.9°F14.4°C 48.6°F9.2°C 71% 4.6 mph W7.4 kmh W 5.8 mph9.3 kmh 29.62 in1003.0 mb - 0.00 in0.0 mm 0.00 in0.0 mm
07:00 AM 58.3°F14.6°C 48.6°F9.2°C 70% 4.6 mph W7.4 kmh W 5.8 mph9.3 kmh 29.62 in1003.0 mb - 0.00 in0.0 mm 0.00 in0.0 mm
07:10 AM 59.0°F15.0°C 48.4°F9.1°C 68% 4.6 mph WNW7.4 kmh WNW 5.8 mph9.3 kmh 29.62 in1003.0 mb - 0.00 in0.0 mm 0.00 in0.0 mm
07:20 AM 58.5°F14.7°C 47.1°F8.4°C 66% 5.8 mph W9.3 kmh W 6.9 mph11.1 kmh 29.62 in1003.0 mb - 0.00 in0.0 mm 0.00 in0.0 mm
07:30 AM 58.6°F14.8°C 47.3°F8.5°C 66% 4.6 mph WSW7.4 kmh WSW 5.8 mph9.3 kmh 29.62 in1003.0 mb - 0.00 in0.0 mm 0.00 in0.0 mm
07:40 AM 59.2°F15.1°C 47.4°F8.6°C 65% 4.6 mph SSW7.4 kmh SSW 4.6 mph7.4 kmh 29.62 in1003.0 mb - 0.00 in0.0 mm 0.00 in0.0 mm
07:50 AM 59.4°F15.2°C 47.6°F8.7°C 65% 2.3 mph SW3.7 kmh SW 3.5 mph5.6 kmh 29.62 in1003.0 mb - 0.00 in0.0 mm 0.00 in0.0 mm
08:00 AM 62.1°F16.7°C 49.3°F9.6°C 63% 5.8 mph WSW9.3 kmh WSW 9.2 mph14.8 kmh 29.62 in1003.0 mb - 0.00 in0.0 mm 0.00 in0.0 mm
08:10 AM 61.6°F16.4°C 46.7°F8.2°C 58% 5.8 mph SW9.3 kmh SW 4.6 mph7.4 kmh 29.62 in1003.0 mb - 0.00 in0.0 mm 0.00 in0.0 mm
08:20 AM 61.2°F16.2°C 45.8°F7.7°C 57% 3.5 mph WSW5.6 kmh WSW 5.8 mph9.3 kmh 29.62 in1003.0 mb - 0.00 in0.0 mm 0.00 in0.0 mm
08:30 AM 62.5°F16.9°C 47.0°F8.3°C 57% 4.6 mph WSW7.4 kmh WSW 8.1 mph13.0 kmh 29.62 in1003.0 mb - 0.00 in0.0 mm 0.00 in0.0 mm
08:40 AM 62.2°F16.8°C 44.9°F7.2°C 53% 4.6 mph SSW7.4 kmh SSW 6.9 mph11.1 kmh 29.62 in1003.0 mb - 0.00 in0.0 mm 0.00 in0.0 mm
08:50 AM 62.2°F16.8°C 44.9°F7.2°C 53% 8.1 mph WSW13.0 kmh WSW 11.5 mph18.5 kmh 29.62 in1003.0 mb - 0.00 in0.0 mm 0.00 in0.0 mm
09:00 AM 62.2°F16.8°C 44.4°F6.9°C 52% 8.1 mph W13.0 kmh W 9.2 mph14.8 kmh 29.62 in1003.0 mb - 0.00 in0.0 mm 0.00 in0.0 mm
09:10 AM 63.1°F17.3°C 44.2°F6.8°C 50% 6.9 mph W11.1 kmh W 10.4 mph16.7 kmh 29.62 in1003.0 mb - 0.00 in0.0 mm 0.00 in0.0 mm
09:20 AM 63.1°F17.3°C 44.2°F6.8°C 50% 6.9 mph W11.1 kmh W 8.1 mph13.0 kmh 29.62 in1003.0 mb - 0.00 in0.0 mm 0.00 in0.0 mm
09:30 AM 64.2°F17.9°C 49.1°F9.5°C 58% 8.1 mph W13.0 kmh W 9.2 mph14.8 kmh 29.62 in1003.0 mb - 0.00 in0.0 mm 0.00 in0.0 mm
09:40 AM 64.4°F18.0°C 51.1°F10.6°C 62% 4.6 mph WSW7.4 kmh WSW 6.9 mph11.1 kmh 29.62 in1003.0 mb - 0.00 in0.0 mm 0.00 in0.0 mm
09:50 AM 64.1°F17.8°C 50.3°F10.2°C 61% 4.6 mph W7.4 kmh W 8.1 mph13.0 kmh 29.62 in1003.0 mb - 0.00 in0.0 mm 0.00 in0.0 mm
10:00 AM 63.8°F17.7°C 54.6°F12.6°C 72% 5.8 mph SW9.3 kmh SW 9.2 mph14.8 kmh 29.62 in1003.0 mb - 0.00 in0.0 mm 0.00 in0.0 mm
10:10 AM 63.5°F17.5°C 53.9°F12.2°C 71% 6.9 mph WSW11.1 kmh WSW 9.2 mph14.8 kmh 29.62 in1003.0 mb - 0.00 in0.0 mm 0.00 in0.0 mm
10:20 AM 63.3°F17.4°C 54.1°F12.3°C 72% 5.8 mph SW9.3 kmh SW 6.9 mph11.1 kmh 29.62 in1003.0 mb - 0.00 in0.0 mm 0.00 in0.0 mm
10:30 AM 63.5°F17.5°C 55.4°F13.0°C 75% 6.9 mph WSW11.1 kmh WSW 10.4 mph16.7 kmh 29.62 in1003.0 mb - 0.00 in0.0 mm 0.00 in0.0 mm
10:40 AM 63.3°F17.4°C 54.5°F12.5°C 73% 8.1 mph SW13.0 kmh SW 12.7 mph20.4 kmh 29.62 in1003.0 mb - 0.00 in0.0 mm 0.00 in0.0 mm
10:50 AM 63.5°F17.5°C 55.1°F12.8°C 74% 8.1 mph W13.0 kmh W 8.1 mph13.0 kmh 29.62 in1003.0 mb - 0.00 in0.0 mm 0.00 in0.0 mm
11:00 AM 64.2°F17.9°C 55.4°F13.0°C 73% 5.8 mph SW9.3 kmh SW 6.9 mph11.1 kmh 29.62 in1003.0 mb - 0.00 in0.0 mm 0.00 in0.0 mm
11:10 AM 65.0°F18.3°C 55.8°F13.2°C 72% 6.9 mph WSW11.1 kmh WSW 9.2 mph14.8 kmh 29.62 in1003.0 mb - 0.00 in0.0 mm 0.00 in0.0 mm
11:20 AM 66.0°F18.9°C 56.0°F13.3°C 70% 6.9 mph WSW11.1 kmh WSW 13.8 mph22.2 kmh 29.62 in1003.0 mb - 0.00 in0.0 mm 0.00 in0.0 mm
11:30 AM 65.3°F18.5°C 55.3°F12.9°C 70% 6.9 mph WSW11.1 kmh WSW 9.2 mph14.8 kmh 29.62 in1003.0 mb - 0.00 in0.0 mm 0.00 in0.0 mm
11:40 AM 65.7°F18.7°C 55.2°F12.9°C 69% 5.8 mph WSW9.3 kmh WSW 6.9 mph11.1 kmh 29.62 in1003.0 mb - 0.00 in0.0 mm 0.00 in0.0 mm
11:50 AM 65.4°F18.6°C 55.8°F13.2°C 71% 6.9 mph SW11.1 kmh SW 9.2 mph14.8 kmh 29.62 in1003.0 mb - 0.00 in0.0 mm 0.00 in0.0 mm
12:00 PM 65.7°F18.7°C 56.4°F13.6°C 72% 6.9 mph W11.1 kmh W 11.5 mph18.5 kmh 29.62 in1003.0 mb - 0.00 in0.0 mm 0.00 in0.0 mm
12:10 PM 66.4°F19.1°C 55.9°F13.3°C 69% 6.9 mph WSW11.1 kmh WSW 11.5 mph18.5 kmh 29.62 in1003.0 mb - 0.00 in0.0 mm 0.00 in0.0 mm
12:20 PM 65.8°F18.8°C 55.8°F13.2°C 70% 6.9 mph WSW11.1 kmh WSW 9.2 mph14.8 kmh 29.62 in1003.0 mb - 0.00 in0.0 mm 0.00 in0.0 mm
12:30 PM 65.5°F18.6°C 56.2°F13.4°C 72% 5.8 mph SW9.3 kmh SW 8.1 mph13.0 kmh 29.62 in1003.0 mb - 0.00 in0.0 mm 0.00 in0.0 mm
12:40 PM 66.2°F19.0°C 56.1°F13.4°C 70% 6.9 mph SW11.1 kmh SW 9.2 mph14.8 kmh 29.62 in1003.0 mb - 0.00 in0.0 mm 0.00 in0.0 mm
12:50 PM 66.7°F19.3°C 55.4°F13.0°C 67% 6.9 mph SW11.1 kmh SW 9.2 mph14.8 kmh 29.65 in1004.1 mb - 0.00 in0.0 mm 0.00 in0.0 mm
01:00 PM 66.7°F19.3°C 53.7°F12.1°C 63% 5.8 mph WSW9.3 kmh WSW 6.9 mph11.1 kmh 29.65 in1004.1 mb - 0.00 in0.0 mm 0.00 in0.0 mm
01:10 PM 66.7°F19.3°C 53.3°F11.8°C 62% 6.9 mph W11.1 kmh W 9.2 mph14.8 kmh 29.65 in1004.1 mb - 0.00 in0.0 mm 0.00 in0.0 mm
01:20 PM 66.4°F19.1°C 50.7°F10.4°C 57% 6.9 mph SW11.1 kmh SW 9.2 mph14.8 kmh 29.62 in1003.0 mb - 0.00 in0.0 mm 0.00 in0.0 mm
01:30 PM 66.4°F19.1°C 55.9°F13.3°C 69% 5.8 mph WSW9.3 kmh WSW 8.1 mph13.0 kmh 29.65 in1004.1 mb - 0.00 in0.0 mm 0.00 in0.0 mm
01:40 PM 66.7°F19.3°C 56.2°F13.4°C 69% 3.5 mph WSW5.6 kmh WSW 6.9 mph11.1 kmh 29.65 in1004.1 mb - 0.00 in0.0 mm 0.00 in0.0 mm
01:50 PM 66.5°F19.2°C 56.0°F13.3°C 69% 4.6 mph WSW7.4 kmh WSW 5.8 mph9.3 kmh 29.65 in1004.1 mb - 0.00 in0.0 mm 0.00 in0.0 mm
02:00 PM 65.0°F18.3°C 52.5°F11.4°C 64% 6.9 mph WSW11.1 kmh WSW 8.1 mph13.0 kmh 29.65 in1004.1 mb - 0.00 in0.0 mm 0.00 in0.0 mm
02:10 PM 64.6°F18.1°C 54.6°F12.6°C 70% 5.8 mph SW9.3 kmh SW 5.8 mph9.3 kmh 29.65 in1004.1 mb - 0.00 in0.0 mm 0.00 in0.0 mm
02:20 PM 66.6°F19.2°C 52.3°F11.3°C 60% 3.5 mph SW5.6 kmh SW 5.8 mph9.3 kmh 29.65 in1004.1 mb - 0.00 in0.0 mm 0.00 in0.0 mm
02:30 PM 67.8°F19.9°C 53.9°F12.2°C 61% 5.8 mph SW9.3 kmh SW 10.4 mph16.7 kmh 29.65 in1004.1 mb - 0.00 in0.0 mm 0.00 in0.0 mm
02:40 PM 66.5°F19.2°C 52.1°F11.2°C 60% 11.5 mph W18.5 kmh W 15.0 mph24.1 kmh 29.65 in1004.1 mb - 0.00 in0.0 mm 0.00 in0.0 mm
02:50 PM 64.3°F17.9°C 50.1°F10.1°C 60% 10.4 mph WSW16.7 kmh WSW 13.8 mph22.2 kmh 29.65 in1004.1 mb - 0.00 in0.0 mm 0.00 in0.0 mm
03:00 PM 62.2°F16.8°C 53.8°F12.1°C 74% 5.8 mph WSW9.3 kmh WSW 9.2 mph14.8 kmh 29.68 in1005.1 mb - 0.00 in0.0 mm 0.00 in0.0 mm
03:10 PM 61.2°F16.2°C 54.2°F12.3°C 78% 8.1 mph WSW13.0 kmh WSW 9.2 mph14.8 kmh 29.68 in1005.1 mb - 0.00 in0.0 mm 0.00 in0.0 mm
03:20 PM 61.5°F16.4°C 54.6°F12.6°C 78% 5.8 mph WSW9.3 kmh WSW 5.8 mph9.3 kmh 29.68 in1005.1 mb - 0.00 in0.0 mm 0.00 in0.0 mm
03:30 PM 62.4°F16.9°C 55.5°F13.1°C 78% 5.8 mph SW9.3 kmh SW 8.1 mph13.0 kmh 29.68 in1005.1 mb - 0.00 in0.0 mm 0.00 in0.0 mm
03:40 PM 66.4°F19.1°C 57.5°F14.2°C 73% 3.5 mph SW5.6 kmh SW 5.8 mph9.3 kmh 29.68 in1005.1 mb - 0.00 in0.0 mm 0.00 in0.0 mm
03:50 PM 66.7°F19.3°C 54.5°F12.5°C 65% 11.5 mph WSW18.5 kmh WSW 15.0 mph24.1 kmh 29.68 in1005.1 mb - 0.00 in0.0 mm 0.00 in0.0 mm
04:00 PM 67.3°F19.6°C 53.9°F12.2°C 62% 10.4 mph WSW16.7 kmh WSW 13.8 mph22.2 kmh 29.68 in1005.1 mb - 0.00 in0.0 mm 0.00 in0.0 mm
04:10 PM 65.7°F18.7°C 54.0°F12.2°C 66% 9.2 mph WSW14.8 kmh WSW 11.5 mph18.5 kmh 29.68 in1005.1 mb - 0.00 in0.0 mm 0.00 in0.0 mm
04:20 PM 65.1°F18.4°C 53.9°F12.2°C 67% 8.1 mph WSW13.0 kmh WSW 12.7 mph20.4 kmh 29.68 in1005.1 mb - 0.00 in0.0 mm 0.00 in0.0 mm
04:30 PM 67.1°F19.5°C 54.5°F12.5°C 64% 6.9 mph SW11.1 kmh SW 6.9 mph11.1 kmh 29.68 in1005.1 mb - 0.00 in0.0 mm 0.00 in0.0 mm
04:40 PM 67.8°F19.9°C 53.4°F11.9°C 60% 8.1 mph WSW13.0 kmh WSW 9.2 mph14.8 kmh 29.68 in1005.1 mb - 0.00 in0.0 mm 0.00 in0.0 mm
04:50 PM 66.3°F19.1°C 51.1°F10.6°C 58% 10.4 mph WSW16.7 kmh WSW 16.1 mph25.9 kmh 29.68 in1005.1 mb - 0.00 in0.0 mm 0.00 in0.0 mm
05:00 PM 67.4°F19.7°C 52.2°F11.2°C 58% 9.2 mph WSW14.8 kmh WSW 12.7 mph20.4 kmh 29.68 in1005.1 mb - 0.00 in0.0 mm 0.00 in0.0 mm
05:10 PM 66.4°F19.1°C 51.6°F10.9°C 59% 10.4 mph WSW16.7 kmh WSW 15.0 mph24.1 kmh 29.68 in1005.1 mb - 0.00 in0.0 mm 0.00 in0.0 mm
05:20 PM 66.4°F19.1°C 52.6°F11.4°C 61% 6.9 mph W11.1 kmh W 9.2 mph14.8 kmh 29.68 in1005.1 mb - 0.00 in0.0 mm 0.00 in0.0 mm
05:30 PM 66.2°F19.0°C 51.9°F11.1°C 60% 13.8 mph WNW22.2 kmh WNW 17.3 mph27.8 kmh 29.68 in1005.1 mb - 0.00 in0.0 mm 0.00 in0.0 mm
05:40 PM 67.3°F19.6°C 51.5°F10.8°C 57% 13.8 mph WSW22.2 kmh WSW 18.4 mph29.6 kmh 29.68 in1005.1 mb - 0.00 in0.0 mm 0.00 in0.0 mm
05:50 PM 67.7°F19.8°C 50.9°F10.5°C 55% 8.1 mph WSW13.0 kmh WSW 10.4 mph16.7 kmh 29.68 in1005.1 mb - 0.00 in0.0 mm 0.00 in0.0 mm
06:00 PM 67.6°F19.8°C 50.3°F10.2°C 54% 12.7 mph W20.4 kmh W 18.4 mph29.6 kmh 29.68 in1005.1 mb - 0.00 in0.0 mm 0.00 in0.0 mm
06:10 PM 66.8°F19.3°C 49.1°F9.5°C 53% 11.5 mph WSW18.5 kmh WSW 13.8 mph22.2 kmh 29.68 in1005.1 mb - 0.00 in0.0 mm 0.00 in0.0 mm
06:20 PM 66.6°F19.2°C 44.5°F6.9°C 45% 9.2 mph W14.8 kmh W 13.8 mph22.2 kmh 29.68 in1005.1 mb - 0.00 in0.0 mm 0.00 in0.0 mm
06:30 PM 65.9°F18.8°C 44.0°F6.7°C 45% 9.2 mph WSW14.8 kmh WSW 16.1 mph25.9 kmh 29.68 in1005.1 mb - 0.00 in0.0 mm 0.00 in0.0 mm
06:40 PM 65.5°F18.6°C 45.3°F7.4°C 48% 11.5 mph W18.5 kmh W 16.1 mph25.9 kmh 29.68 in1005.1 mb - 0.00 in0.0 mm 0.00 in0.0 mm
06:50 PM 65.1°F18.4°C 48.1°F8.9°C 54% 9.2 mph WSW14.8 kmh WSW 12.7 mph20.4 kmh 29.68 in1005.1 mb - 0.00 in0.0 mm 0.00 in0.0 mm
07:00 PM 64.2°F17.9°C 43.6°F6.4°C 47% 11.5 mph NW18.5 kmh NW 13.8 mph22.2 kmh 29.68 in1005.1 mb - 0.00 in0.0 mm 0.00 in0.0 mm
07:10 PM 63.9°F17.7°C 43.2°F6.2°C 47% 8.1 mph WSW13.0 kmh WSW 10.4 mph16.7 kmh 29.68 in1005.1 mb - 0.00 in0.0 mm 0.00 in0.0 mm
07:20 PM 62.2°F16.8°C 42.3°F5.7°C 48% 9.2 mph W14.8 kmh W 13.8 mph22.2 kmh 29.68 in1005.1 mb - 0.00 in0.0 mm 0.00 in0.0 mm
07:30 PM 60.9°F16.1°C 42.6°F5.9°C 51% 8.1 mph WSW13.0 kmh WSW 11.5 mph18.5 kmh 29.68 in1005.1 mb - 0.00 in0.0 mm 0.00 in0.0 mm
07:40 PM 60.1°F15.6°C 42.9°F6.1°C 53% 11.5 mph W18.5 kmh W 13.8 mph22.2 kmh 29.68 in1005.1 mb - 0.00 in0.0 mm 0.00 in0.0 mm
07:50 PM 59.7°F15.4°C 44.0°F6.7°C 56% 9.2 mph WSW14.8 kmh WSW 11.5 mph18.5 kmh 29.68 in1005.1 mb - 0.00 in0.0 mm 0.00 in0.0 mm
08:00 PM 59.2°F15.1°C 43.0°F6.1°C 55% 5.8 mph W9.3 kmh W 8.1 mph13.0 kmh 29.68 in1005.1 mb - 0.00 in0.0 mm 0.00 in0.0 mm
08:10 PM 58.5°F14.7°C 43.3°F6.3°C 57% 9.2 mph W14.8 kmh W 11.5 mph18.5 kmh 29.68 in1005.1 mb - 0.00 in0.0 mm 0.00 in0.0 mm
08:20 PM 57.9°F14.4°C 43.7°F6.5°C 59% 4.6 mph W7.4 kmh W 5.8 mph9.3 kmh 29.68 in1005.1 mb - 0.00 in0.0 mm 0.00 in0.0 mm
08:30 PM 57.7°F14.3°C 44.8°F7.1°C 62% 5.8 mph WSW9.3 kmh WSW 8.1 mph13.0 kmh 29.68 in1005.1 mb - 0.00 in0.0 mm 0.00 in0.0 mm
08:40 PM 57.6°F14.2°C 43.3°F6.3°C 59% 6.9 mph W11.1 kmh W 9.2 mph14.8 kmh 29.68 in1005.1 mb - 0.00 in0.0 mm 0.00 in0.0 mm
08:50 PM 57.6°F14.2°C 42.0°F5.6°C 56% 8.1 mph W13.0 kmh W 9.2 mph14.8 kmh 29.68 in1005.1 mb - 0.00 in0.0 mm 0.00 in0.0 mm
09:00 PM 57.4°F14.1°C 46.1°F7.8°C 66% 8.1 mph W13.0 kmh W 9.2 mph14.8 kmh 29.71 in1006.1 mb - 0.00 in0.0 mm 0.00 in0.0 mm
09:10 PM 57.2°F14.0°C 47.5°F8.6°C 70% 5.8 mph WSW9.3 kmh WSW 11.5 mph18.5 kmh 29.71 in1006.1 mb - 0.00 in0.0 mm 0.00 in0.0 mm
09:20 PM 56.8°F13.8°C 47.5°F8.6°C 71% 6.9 mph WSW11.1 kmh WSW 9.2 mph14.8 kmh 29.71 in1006.1 mb - 0.00 in0.0 mm 0.00 in0.0 mm
09:30 PM 56.5°F13.6°C 44.4°F6.9°C 64% 6.9 mph SW11.1 kmh SW 9.2 mph14.8 kmh 29.71 in1006.1 mb - 0.00 in0.0 mm 0.00 in0.0 mm
09:40 PM 56.1°F13.4°C 47.9°F8.8°C 74% 6.9 mph WSW11.1 kmh WSW 8.1 mph13.0 kmh 29.71 in1006.1 mb - 0.00 in0.0 mm 0.00 in0.0 mm
09:50 PM 55.6°F13.1°C 47.4°F8.6°C 74% 5.8 mph WSW9.3 kmh WSW 5.8 mph9.3 kmh 29.71 in1006.1 mb - 0.00 in0.0 mm 0.00 in0.0 mm
10:00 PM 55.2°F12.9°C 47.4°F8.6°C 75% 5.8 mph W9.3 kmh W 8.1 mph13.0 kmh 29.71 in1006.1 mb - 0.00 in0.0 mm 0.00 in0.0 mm
10:10 PM 54.9°F12.7°C 47.8°F8.8°C 77% 5.8 mph WSW9.3 kmh WSW 6.9 mph11.1 kmh 29.71 in1006.1 mb - 0.00 in0.0 mm 0.00 in0.0 mm
10:20 PM 54.5°F12.5°C 44.9°F7.2°C 70% 5.8 mph SW9.3 kmh SW 9.2 mph14.8 kmh 29.71 in1006.1 mb - 0.00 in0.0 mm 0.00 in0.0 mm
10:30 PM 54.3°F12.4°C 44.0°F6.7°C 68% 5.8 mph W9.3 kmh W 5.8 mph9.3 kmh 29.71 in1006.1 mb - 0.00 in0.0 mm 0.00 in0.0 mm
10:40 PM 53.3°F11.8°C 38.9°F3.8°C 58% 4.6 mph W7.4 kmh W 4.6 mph7.4 kmh 29.71 in1006.1 mb - 0.00 in0.0 mm 0.00 in0.0 mm
10:50 PM 52.2°F11.2°C 36.0°F2.2°C 54% 3.5 mph W5.6 kmh W 5.8 mph9.3 kmh 29.74 in1007.1 mb - 0.00 in0.0 mm 0.00 in0.0 mm
11:00 PM 51.6°F10.9°C 36.4°F2.4°C 56% 3.5 mph WSW5.6 kmh WSW 4.6 mph7.4 kmh 29.74 in1007.1 mb - 0.00 in0.0 mm 0.00 in0.0 mm
11:10 PM 51.1°F10.6°C 36.8°F2.7°C 58% 3.5 mph W5.6 kmh W 4.6 mph7.4 kmh 29.74 in1007.1 mb - 0.00 in0.0 mm 0.00 in0.0 mm
11:20 PM 50.4°F10.2°C 36.1°F2.3°C 58% 1.2 mph W1.9 kmh W 2.3 mph3.7 kmh 29.71 in1006.1 mb - 0.00 in0.0 mm 0.00 in0.0 mm
11:30 PM 49.6°F9.8°C 35.5°F1.9°C 58% 3.5 mph WSW5.6 kmh WSW 4.6 mph7.4 kmh 29.71 in1006.1 mb - 0.00 in0.0 mm 0.00 in0.0 mm
11:40 PM 49.6°F9.8°C 36.3°F2.4°C 60% 4.6 mph WSW7.4 kmh WSW 4.6 mph7.4 kmh 29.71 in1006.1 mb - 0.00 in0.0 mm 0.00 in0.0 mm
11:50 PM 50.0°F10.0°C 37.5°F3.1°C 62% 3.5 mph W5.6 kmh W 3.5 mph5.6 kmh 29.74 in1007.1 mb - 0.00 in0.0 mm 0.00 in0.0 mm